Time,TemperatureF,DewpointF,PressureIn,WindDirection,WindDirectionDegrees,WindSpeedMPH,WindSpeedGustMPH,Humidity,HourlyPrecipIn,Conditions,Clouds,dailyrainin,SoftwareType,DateUTC
2013-05-19 00:01:00,55.7,52.2,30.21,SSE,160,0.0,0.0,88,0.00,RA,,0.00,WeatherDisplay:10.37,2013-05-19 04:01:00,
2013-05-19 00:03:00,55.7,52.2,30.21,SSE,164,1.1,3.5,88,0.00,RA,,0.00,WeatherDisplay:10.37,2013-05-19 04:03:00,
2013-05-19 00:08:00,55.7,52.2,30.21,SSE,165,0.0,0.0,88,0.00,RA,,0.00,WeatherDisplay:10.37,2013-05-19 04:08:00,
2013-05-19 00:14:00,55.7,52.2,30.22,SSE,167,0.0,0.0,88,0.00,CLR,,0.00,WeatherDisplay:10.37,2013-05-19 04:14:00,
2013-05-19 00:19:00,55.7,52.2,30.22,South,178,0.0,0.0,88,0.00,CLR,,0.00,WeatherDisplay:10.37,2013-05-19 04:19:00,
2013-05-19 00:24:00,55.7,52.2,30.22,South,178,0.0,0.0,88,0.00,CLR,,0.00,WeatherDisplay:10.37,2013-05-19 04:24:00,
2013-05-19 00:29:00,55.7,52.2,30.22,South,175,1.3,2.0,88,0.00,CLR,,0.00,WeatherDisplay:10.37,2013-05-19 04:29:00,
2013-05-19 00:34:00,55.7,52.2,30.22,SSE,161,0.0,2.3,88,0.00,CLR,,0.00,WeatherDisplay:10.37,2013-05-19 04:34:00,
2013-05-19 00:39:00,55.7,52.2,30.22,SSE,157,0.0,0.0,88,0.00,CLR,,0.00,WeatherDisplay:10.37,2013-05-19 04:39:00,
2013-05-19 00:44:00,55.6,52.4,30.22,SE,138,0.0,0.0,89,0.00,CLR,,0.00,WeatherDisplay:10.37,2013-05-19 04:44:00,
2013-05-19 00:50:00,55.4,52.2,30.21,SE,138,0.0,0.0,89,0.00,CLR,,0.00,WeatherDisplay:10.37,2013-05-19 04:50:00,
2013-05-19 00:55:00,55.4,52.2,30.21,SE,140,0.0,0.0,89,0.00,CLR,,0.00,WeatherDisplay:10.37,2013-05-19 04:55:00,
2013-05-19 01:00:00,55.3,52.4,30.21,SE,141,0.0,0.0,90,0.00,CLR,,0.00,WeatherDisplay:10.37,2013-05-19 05:00:00,
2013-05-19 01:05:00,55.3,52.4,30.21,SE,141,0.0,0.0,90,0.00,CLR,,0.00,WeatherDisplay:10.37,2013-05-19 05:05:00,
2013-05-19 01:11:00,55.1,52.5,30.21,South,172,0.0,0.0,91,0.00,CLR,,0.00,WeatherDisplay:10.37,2013-05-19 05:11:00,
2013-05-19 01:16:00,55.1,52.5,30.20,SE,124,0.0,0.0,91,0.00,CLR,,0.00,WeatherDisplay:10.37,2013-05-19 05:16:00,
2013-05-19 01:21:00,55.1,52.5,30.20,SE,124,0.0,0.0,91,0.00,CLR,,0.00,WeatherDisplay:10.37,2013-05-19 05:21:00,
2013-05-19 01:26:00,55.1,52.8,30.20,South,174,0.0,0.0,92,0.00,CLR,,0.00,WeatherDisplay:10.37,2013-05-19 05:26:00,
2013-05-19 01:31:00,55.0,52.7,30.20,South,172,0.0,0.0,92,0.00,CLR,,0.00,WeatherDisplay:10.37,2013-05-19 05:31:00,
2013-05-19 01:36:00,55.0,52.7,30.20,SE,144,0.0,0.0,92,0.00,CLR,,0.00,WeatherDisplay:10.37,2013-05-19 05:36:00,
2013-05-19 01:42:00,55.0,52.7,30.20,SE,143,0.0,0.0,92,0.00,CLR,,0.00,WeatherDisplay:10.37,2013-05-19 05:42:00,
2013-05-19 01:47:00,55.0,52.7,30.19,SE,138,0.0,0.0,92,0.00,CLR,,0.00,WeatherDisplay:10.37,2013-05-19 05:47:00,
2013-05-19 01:52:00,55.0,52.7,30.19,SSE,152,0.0,0.0,92,0.00,CLR,,0.00,WeatherDisplay:10.37,2013-05-19 05:52:00,
2013-05-19 01:58:00,55.0,52.7,30.19,SSE,168,0.0,0.0,92,0.00,CLR,,0.00,WeatherDisplay:10.37,2013-05-19 05:58:00,
2013-05-19 02:03:00,55.0,53.0,30.19,SE,144,1.8,5.8,93,0.00,CLR,,0.00,WeatherDisplay:10.37,2013-05-19 06:03:00,
2013-05-19 02:08:00,55.0,53.0,30.19,SSE,152,0.7,2.3,93,0.00,CLR,,0.00,WeatherDisplay:10.37,2013-05-19 06:08:00,
2013-05-19 02:13:00,55.0,53.0,30.19,SSE,151,0.0,0.0,93,0.00,CLR,,0.01,WeatherDisplay:10.37,2013-05-19 06:13:00,
2013-05-19 02:18:00,55.0,53.0,30.19,SSE,150,0.0,0.0,93,0.01,RA,,0.01,WeatherDisplay:10.37,2013-05-19 06:18:00,
2013-05-19 02:23:00,55.0,53.0,30.19,SE,141,0.0,0.0,93,0.01,,,0.01,WeatherDisplay:10.37,2013-05-19 06:23:00,
2013-05-19 02:28:00,54.8,52.8,30.19,ESE,117,0.0,0.0,93,0.02,RA,,0.02,WeatherDisplay:10.37,2013-05-19 06:28:00,
2013-05-19 02:34:00,54.8,52.8,30.19,SE,134,0.0,0.0,93,0.02,RA,,0.02,WeatherDisplay:10.37,2013-05-19 06:34:00,
2013-05-19 02:39:00,54.8,52.8,30.19,SE,144,0.0,0.0,93,0.02,CLR,,0.02,WeatherDisplay:10.37,2013-05-19 06:39:00,
2013-05-19 02:44:00,54.8,52.8,30.19,ESE,112,1.6,2.0,93,0.03,RA,,0.03,WeatherDisplay:10.37,2013-05-19 06:44:00,
2013-05-19 02:49:00,54.8,52.8,30.19,ESE,123,0.0,0.0,93,0.03,RA,,0.03,WeatherDisplay:10.37,2013-05-19 06:49:00,
2013-05-19 02:54:00,54.8,53.1,30.18,SSE,148,0.0,0.0,94,0.03,CLR,,0.03,WeatherDisplay:10.37,2013-05-19 06:54:00,
2013-05-19 02:59:00,54.8,53.1,30.18,SSE,148,0.0,0.0,94,0.03,CLR,,0.03,WeatherDisplay:10.37,2013-05-19 06:59:00,
2013-05-19 03:05:00,54.8,53.1,30.18,SSE,147,0.0,0.0,94,0.03,CLR,,0.03,WeatherDisplay:10.37,2013-05-19 07:05:00,
2013-05-19 03:10:00,54.8,53.1,30.18,SE,136,0.0,0.0,94,0.03,CLR,,0.03,WeatherDisplay:10.37,2013-05-19 07:10:00,
2013-05-19 03:15:00,54.8,53.1,30.18,SE,134,0.0,0.0,94,0.02,CLR,,0.03,WeatherDisplay:10.37,2013-05-19 07:15:00,
2013-05-19 03:20:00,54.8,53.1,30.19,SSE,164,2.1,5.8,94,0.02,CLR,,0.03,WeatherDisplay:10.37,2013-05-19 07:20:00,
2013-05-19 03:26:00,54.8,53.1,30.19,SSE,150,0.0,0.0,94,0.02,RA,,0.04,WeatherDisplay:10.37,2013-05-19 07:26:00,
2013-05-19 03:31:00,54.8,53.1,30.19,SE,140,0.0,0.0,94,0.02,RA,,0.04,WeatherDisplay:10.37,2013-05-19 07:31:00,
2013-05-19 03:36:00,54.8,53.1,30.18,SE,131,0.0,0.0,94,0.02,CLR,,0.04,WeatherDisplay:10.37,2013-05-19 07:36:00,
2013-05-19 03:41:00,54.8,53.1,30.18,SE,140,0.0,0.0,94,0.01,CLR,,0.04,WeatherDisplay:10.37,2013-05-19 07:41:00,
2013-05-19 03:46:00,54.8,53.1,30.19,SE,136,0.5,2.3,94,0.01,CLR,,0.04,WeatherDisplay:10.37,2013-05-19 07:46:00,
2013-05-19 03:51:00,54.8,53.1,30.19,SE,140,1.0,2.3,94,0.01,CLR,,0.04,WeatherDisplay:10.37,2013-05-19 07:51:00,
2013-05-19 03:56:00,54.8,53.1,30.18,SE,138,0.9,3.5,94,0.01,CLR,,0.04,WeatherDisplay:10.37,2013-05-19 07:56:00,
2013-05-19 04:01:00,54.8,53.1,30.18,SSE,164,2.4,4.6,94,0.02,RA,,0.05,WeatherDisplay:10.37,2013-05-19 08:01:00,
2013-05-19 04:07:00,54.8,53.1,30.18,SE,143,1.2,6.9,94,0.02,RA,,0.05,WeatherDisplay:10.37,2013-05-19 08:07:00,
2013-05-19 04:12:00,54.8,53.1,30.18,SSE,155,0.0,2.3,94,0.02,CLR,,0.05,WeatherDisplay:10.37,2013-05-19 08:12:00,
2013-05-19 04:17:00,55.0,53.3,30.18,SSE,157,0.0,0.0,94,0.02,CLR,,0.05,WeatherDisplay:10.37,2013-05-19 08:17:00,
2013-05-19 04:22:00,54.8,53.1,30.18,SE,144,1.1,4.6,94,0.02,CLR,,0.05,WeatherDisplay:10.37,2013-05-19 08:22:00,
2013-05-19 04:27:00,54.8,53.1,30.18,SSE,167,0.0,0.0,94,0.01,CLR,,0.05,WeatherDisplay:10.37,2013-05-19 08:27:00,
2013-05-19 04:32:00,54.8,53.1,30.18,ESE,114,0.2,4.6,94,0.01,CLR,,0.05,WeatherDisplay:10.37,2013-05-19 08:32:00,
2013-05-19 04:37:00,54.8,53.1,30.18,SE,134,3.2,4.6,94,0.01,CLR,,0.05,WeatherDisplay:10.37,2013-05-19 08:37:00,
2013-05-19 04:42:00,54.8,53.1,30.18,SE,144,0.0,3.5,94,0.01,CLR,,0.05,WeatherDisplay:10.37,2013-05-19 08:42:00,
2013-05-19 04:48:00,54.8,53.1,30.18,South,179,3.2,5.8,94,0.02,RA,,0.06,WeatherDisplay:10.37,2013-05-19 08:48:00,
2013-05-19 04:53:00,54.8,53.1,30.18,SE,141,0.0,3.5,94,0.02,RA,,0.06,WeatherDisplay:10.37,2013-05-19 08:53:00,
2013-05-19 04:58:00,54.8,53.1,30.18,ESE,114,0.0,0.0,94,0.02,,,0.06,WeatherDisplay:10.37,2013-05-19 08:58:00,
2013-05-19 05:03:00,54.8,53.1,30.18,South,185,2.6,5.8,94,0.01,CLR,,0.06,WeatherDisplay:10.37,2013-05-19 09:03:00,
2013-05-19 05:08:00,54.8,53.1,30.18,SSE,160,0.1,4.0,94,0.01,CLR,,0.06,WeatherDisplay:10.37,2013-05-19 09:08:00,
2013-05-19 05:14:00,54.8,53.1,30.18,South,182,0.0,0.0,94,0.01,CLR,,0.06,WeatherDisplay:10.37,2013-05-19 09:14:00,
2013-05-19 05:19:00,54.8,53.1,30.18,South,188,0.0,2.3,94,0.01,CLR,,0.06,WeatherDisplay:10.37,2013-05-19 09:19:00,
2013-05-19 05:24:00,54.7,53.0,30.18,East,99,5.1,10.4,94,0.01,CLR,,0.06,WeatherDisplay:10.37,2013-05-19 09:24:00,
2013-05-19 05:29:00,54.7,53.0,30.19,SE,138,1.2,8.1,94,0.01,CLR,,0.06,WeatherDisplay:10.37,2013-05-19 09:29:00,
2013-05-19 05:34:00,54.7,53.0,30.19,SSE,152,3.9,6.9,94,0.01,CLR,,0.06,WeatherDisplay:10.37,2013-05-19 09:34:00,
2013-05-19 05:39:00,54.7,53.0,30.19,SE,131,0.0,0.0,94,0.01,CLR,,0.06,WeatherDisplay:10.37,2013-05-19 09:39:00,
2013-05-19 05:44:00,54.7,53.0,30.19,SE,136,0.0,0.0,94,0.01,CLR,,0.06,WeatherDisplay:10.37,2013-05-19 09:44:00,
2013-05-19 05:50:00,54.5,52.8,30.19,SSE,168,0.0,0.0,94,0.00,CLR,,0.06,WeatherDisplay:10.37,2013-05-19 09:50:00,
2013-05-19 05:55:00,54.4,52.7,30.20,South,169,0.1,4.6,94,0.00,CLR,,0.06,WeatherDisplay:10.37,2013-05-19 09:55:00,
2013-05-19 06:00:00,54.4,52.7,30.20,SSE,165,0.0,0.0,94,0.00,CLR,,0.06,WeatherDisplay:10.37,2013-05-19 10:00:00,
2013-05-19 06:05:00,54.2,52.5,30.20,SE,137,1.5,8.1,94,0.01,RA,,0.07,WeatherDisplay:10.37,2013-05-19 10:05:00,
2013-05-19 06:10:00,54.2,52.5,30.20,SSE,161,0.5,3.5,94,0.01,RA,,0.07,WeatherDisplay:10.37,2013-05-19 10:10:00,
2013-05-19 06:15:00,54.2,52.5,30.19,East,100,4.1,6.9,94,0.01,,,0.07,WeatherDisplay:10.37,2013-05-19 10:15:00,
2013-05-19 06:20:00,54.2,52.5,30.20,ESE,102,0.0,0.0,94,0.01,CLR,,0.07,WeatherDisplay:10.37,2013-05-19 10:20:00,
2013-05-19 06:25:00,54.1,52.4,30.20,SE,138,0.7,2.3,94,0.01,CLR,,0.07,WeatherDisplay:10.37,2013-05-19 10:25:00,
2013-05-19 06:31:00,54.1,52.4,30.20,SSE,158,1.2,4.6,94,0.01,CLR,,0.07,WeatherDisplay:10.37,2013-05-19 10:31:00,
2013-05-19 06:36:00,53.9,52.2,30.20,SE,130,4.3,5.8,94,0.01,CLR,,0.07,WeatherDisplay:10.37,2013-05-19 10:36:00,
2013-05-19 06:41:00,53.9,52.2,30.20,SE,128,0.4,4.6,94,0.01,CLR,,0.07,WeatherDisplay:10.37,2013-05-19 10:41:00,
2013-05-19 06:46:00,53.9,52.2,30.19,ESE,117,0.0,0.0,94,0.01,CLR,,0.07,WeatherDisplay:10.37,2013-05-19 10:46:00,
2013-05-19 06:51:00,53.9,52.2,30.20,East,100,1.3,5.8,94,0.01,CLR,,0.07,WeatherDisplay:10.37,2013-05-19 10:51:00,
2013-05-19 06:56:00,53.9,52.2,30.20,SE,133,0.0,1.2,94,0.01,CLR,,0.07,WeatherDisplay:10.37,2013-05-19 10:56:00,
2013-05-19 07:01:00,53.9,52.2,30.20,SE,134,0.9,3.5,94,0.01,CLR,,0.07,WeatherDisplay:10.37,2013-05-19 11:01:00,
2013-05-19 07:06:00,53.9,52.2,30.20,SSE,157,1.3,4.6,94,0.00,CLR,,0.07,WeatherDisplay:10.37,2013-05-19 11:06:00,
2013-05-19 07:12:00,53.9,52.2,30.20,East,88,2.7,6.9,94,0.00,CLR,,0.07,WeatherDisplay:10.37,2013-05-19 11:12:00,
2013-05-19 07:17:00,53.9,52.2,30.20,East,96,0.1,2.0,94,0.00,CLR,,0.07,WeatherDisplay:10.37,2013-05-19 11:17:00,
2013-05-19 07:22:00,54.1,52.4,30.20,SSE,161,1.1,3.5,94,0.00,CLR,,0.07,WeatherDisplay:10.37,2013-05-19 11:22:00,
2013-05-19 07:27:00,54.1,52.4,30.20,ESE,119,0.2,3.5,94,0.00,CLR,,0.07,WeatherDisplay:10.37,2013-05-19 11:27:00,
2013-05-19 07:32:00,54.2,52.5,30.20,East,82,3.6,4.6,94,0.00,CLR,,0.07,WeatherDisplay:10.37,2013-05-19 11:32:00,
2013-05-19 07:37:00,54.2,52.5,30.20,ESE,102,0.0,0.0,94,0.00,CLR,,0.07,WeatherDisplay:10.37,2013-05-19 11:37:00,
2013-05-19 07:42:00,54.2,52.5,30.20,SSE,154,1.8,6.9,94,0.00,CLR,,0.07,WeatherDisplay:10.37,2013-05-19 11:42:00,
2013-05-19 07:47:00,54.2,52.5,30.21,SE,124,2.1,5.8,94,0.00,CLR,,0.07,WeatherDisplay:10.37,2013-05-19 11:47:00,
2013-05-19 07:52:00,54.2,52.5,30.21,SE,138,2.7,4.0,94,0.00,CLR,,0.07,WeatherDisplay:10.37,2013-05-19 11:52:00,
2013-05-19 07:57:00,54.4,52.7,30.20,SSW,199,0.2,2.3,94,0.00,CLR,,0.07,WeatherDisplay:10.37,2013-05-19 11:57:00,
2013-05-19 08:03:00,54.4,52.7,30.20,SSE,151,0.0,0.0,94,0.00,CLR,,0.07,WeatherDisplay:10.37,2013-05-19 12:03:00,
2013-05-19 08:08:00,54.4,52.7,30.20,SSE,167,1.5,4.6,94,0.00,CLR,,0.07,WeatherDisplay:10.37,2013-05-19 12:08:00,
2013-05-19 08:13:00,54.4,52.7,30.21,SSE,162,6.1,12.7,94,0.00,CLR,,0.07,WeatherDisplay:10.37,2013-05-19 12:13:00,
2013-05-19 08:18:00,54.4,52.7,30.21,SSE,157,2.2,4.0,94,0.00,CLR,,0.07,WeatherDisplay:10.37,2013-05-19 12:18:00,
2013-05-19 08:23:00,54.5,52.8,30.21,SE,136,2.3,8.1,94,0.00,CLR,,0.07,WeatherDisplay:10.37,2013-05-19 12:23:00,
2013-05-19 08:28:00,54.5,52.8,30.21,SE,133,0.0,0.0,94,0.00,CLR,,0.07,WeatherDisplay:10.37,2013-05-19 12:28:00,
2013-05-19 08:33:00,54.5,52.8,30.21,SE,128,2.8,2.8,94,0.00,CLR,,0.07,WeatherDisplay:10.37,2013-05-19 12:33:00,
2013-05-19 08:38:00,54.5,52.8,30.22,SSE,148,0.7,5.8,94,0.00,CLR,,0.07,WeatherDisplay:10.37,2013-05-19 12:38:00,
2013-05-19 08:43:00,54.5,52.8,30.22,SSE,158,1.1,3.5,94,0.00,CLR,,0.07,WeatherDisplay:10.37,2013-05-19 12:43:00,
2013-05-19 08:48:00,54.7,53.0,30.22,SSE,167,0.0,0.0,94,0.00,CLR,,0.07,WeatherDisplay:10.37,2013-05-19 12:48:00,
2013-05-19 08:53:00,54.8,53.1,30.22,East,89,0.1,3.5,94,0.00,CLR,,0.07,WeatherDisplay:10.37,2013-05-19 12:53:00,
2013-05-19 08:59:00,54.8,53.1,30.22,SSE,147,0.0,0.0,94,0.00,CLR,,0.07,WeatherDisplay:10.37,2013-05-19 12:59:00,
2013-05-19 09:04:00,54.8,53.1,30.22,East,92,0.0,0.0,94,0.00,CLR,,0.07,WeatherDisplay:10.37,2013-05-19 13:04:00,
2013-05-19 09:09:00,54.8,53.1,30.22,South,171,3.4,9.2,94,0.00,CLR,,0.07,WeatherDisplay:10.37,2013-05-19 13:09:00,
2013-05-19 09:14:00,54.8,53.1,30.22,ESE,123,2.6,7.0,94,0.00,CLR,,0.07,WeatherDisplay:10.37,2013-05-19 13:14:00,
2013-05-19 09:19:00,54.8,53.1,30.22,SE,134,0.0,0.0,94,0.00,CLR,,0.07,WeatherDisplay:10.37,2013-05-19 13:19:00,
2013-05-19 09:24:00,55.0,53.3,30.22,SE,133,2.5,8.1,94,0.00,CLR,,0.07,WeatherDisplay:10.37,2013-05-19 13:24:00,
2013-05-19 09:29:00,55.0,53.3,30.22,SE,141,0.0,4.6,94,0.00,CLR,,0.07,WeatherDisplay:10.37,2013-05-19 13:29:00,
2013-05-19 09:34:00,55.1,53.4,30.22,SE,137,0.0,0.0,94,0.00,CLR,,0.07,WeatherDisplay:10.37,2013-05-19 13:34:00,
2013-05-19 09:39:00,55.1,53.4,30.22,ENE,78,0.0,0.0,94,0.00,CLR,,0.07,WeatherDisplay:10.37,2013-05-19 13:39:00,
2013-05-19 09:44:00,55.3,53.6,30.22,ENE,78,0.0,0.0,94,0.00,CLR,,0.07,WeatherDisplay:10.37,2013-05-19 13:44:00,
2013-05-19 09:50:00,55.3,53.6,30.22,ENE,75,1.9,5.8,94,0.00,CLR,,0.07,WeatherDisplay:10.37,2013-05-19 13:50:00,
2013-05-19 09:55:00,55.4,53.7,30.22,East,97,2.2,3.5,94,0.00,CLR,,0.07,WeatherDisplay:10.37,2013-05-19 13:55:00,
2013-05-19 10:00:00,55.4,53.7,30.22,SE,126,0.0,0.0,94,0.00,CLR,,0.07,WeatherDisplay:10.37,2013-05-19 14:00:00,
2013-05-19 10:05:00,55.6,53.9,30.21,SSE,151,0.6,6.0,94,0.00,CLR,,0.07,WeatherDisplay:10.37,2013-05-19 14:05:00,
2013-05-19 10:10:00,55.6,54.2,30.21,East,85,0.0,1.2,95,0.00,CLR,,0.07,WeatherDisplay:10.37,2013-05-19 14:10:00,
2013-05-19 10:15:00,55.6,53.9,30.21,East,90,1.0,3.5,94,0.00,CLR,,0.07,WeatherDisplay:10.37,2013-05-19 14:15:00,
2013-05-19 10:20:00,55.9,54.5,30.21,ESE,119,0.0,3.5,95,0.00,CLR,,0.07,WeatherDisplay:10.37,2013-05-19 14:20:00,
2013-05-19 10:25:00,55.9,54.2,30.21,ENE,71,3.9,10.4,94,0.00,CLR,,0.07,WeatherDisplay:10.37,2013-05-19 14:25:00,
2013-05-19 10:30:00,55.9,54.2,30.21,East,93,2.3,4.6,94,0.00,CLR,,0.07,WeatherDisplay:10.37,2013-05-19 14:30:00,
2013-05-19 10:36:00,56.0,54.3,30.21,ENE,68,5.3,7.0,94,0.00,CLR,,0.07,WeatherDisplay:10.37,2013-05-19 14:36:00,
2013-05-19 10:41:00,56.2,54.8,30.21,SE,130,0.2,3.0,95,0.00,CLR,,0.07,WeatherDisplay:10.37,2013-05-19 14:41:00,
2013-05-19 10:46:00,56.2,54.5,30.21,ESE,120,0.0,3.5,94,0.00,CLR,,0.07,WeatherDisplay:10.37,2013-05-19 14:46:00,
2013-05-19 10:51:00,56.2,54.5,30.21,SE,137,2.8,11.5,94,0.00,CLR,,0.07,WeatherDisplay:10.37,2013-05-19 14:51:00,
2013-05-19 10:56:00,56.5,54.8,30.21,SE,141,3.8,8.1,94,0.00,CLR,,0.07,WeatherDisplay:10.37,2013-05-19 14:56:00,
2013-05-19 11:01:00,56.9,55.2,30.21,SE,134,0.9,3.0,94,0.00,CLR,,0.07,WeatherDisplay:10.37,2013-05-19 15:01:00,
2013-05-19 11:06:00,56.9,55.2,30.21,ENE,71,2.1,3.0,94,0.00,CLR,,0.07,WeatherDisplay:10.37,2013-05-19 15:06:00,
2013-05-19 11:11:00,56.9,55.2,30.21,ENE,72,3.3,5.8,94,0.00,CLR,,0.07,WeatherDisplay:10.37,2013-05-19 15:11:00,
2013-05-19 11:16:00,57.3,55.6,30.21,SSE,147,1.8,3.5,94,0.00,CLR,,0.07,WeatherDisplay:10.37,2013-05-19 15:16:00,
2013-05-19 11:22:00,57.6,55.9,30.21,SE,143,2.3,4.0,94,0.00,CLR,,0.07,WeatherDisplay:10.37,2013-05-19 15:22:00,
2013-05-19 11:27:00,57.6,55.6,30.21,East,79,1.7,3.5,93,0.00,CLR,,0.07,WeatherDisplay:10.37,2013-05-19 15:27:00,
2013-05-19 11:32:00,57.6,55.3,30.20,SSE,155,1.1,10.4,92,0.00,CLR,,0.07,WeatherDisplay:10.37,2013-05-19 15:32:00,
2013-05-19 11:37:00,58.3,56.3,30.20,NNE,28,0.0,3.5,93,0.00,CLR,,0.07,WeatherDisplay:10.37,2013-05-19 15:37:00,
2013-05-19 11:43:00,58.3,56.0,30.20,SSE,148,1.6,4.6,92,0.00,CLR,,0.07,WeatherDisplay:10.37,2013-05-19 15:43:00,
2013-05-19 11:48:00,58.4,56.1,30.20,NNE,13,2.2,5.8,92,0.00,CLR,,0.07,WeatherDisplay:10.37,2013-05-19 15:48:00,
2013-05-19 11:53:00,58.7,56.4,30.20,ENE,64,1.2,3.5,92,0.00,CLR,,0.07,WeatherDisplay:10.37,2013-05-19 15:53:00,
2013-05-19 11:58:00,58.7,56.1,30.20,ESE,109,5.1,11.0,91,0.00,CLR,,0.07,WeatherDisplay:10.37,2013-05-19 15:58:00,
2013-05-19 12:03:00,58.7,55.8,30.19,SE,137,8.0,13.8,90,0.00,CLR,,0.07,WeatherDisplay:10.37,2013-05-19 16:03:00,
2013-05-19 12:08:00,58.9,56.0,30.19,East,90,3.4,3.5,90,0.00,CLR,,0.07,WeatherDisplay:10.37,2013-05-19 16:08:00,
2013-05-19 12:13:00,59.3,56.1,30.19,ENE,69,0.5,3.5,89,0.00,CLR,,0.07,WeatherDisplay:10.37,2013-05-19 16:13:00,
2013-05-19 12:18:00,59.3,55.7,30.19,ESE,116,0.9,6.9,88,0.00,CLR,,0.07,WeatherDisplay:10.37,2013-05-19 16:18:00,
2013-05-19 12:23:00,59.2,55.6,30.19,East,93,3.9,11.5,88,0.00,CLR,,0.07,WeatherDisplay:10.37,2013-05-19 16:23:00,
2013-05-19 12:28:00,59.3,55.7,30.19,SE,143,5.4,8.1,88,0.00,CLR,,0.07,WeatherDisplay:10.37,2013-05-19 16:28:00,
2013-05-19 12:33:00,59.2,55.6,30.19,SE,144,0.0,11.5,88,0.00,CLR,,0.07,WeatherDisplay:10.37,2013-05-19 16:33:00,
2013-05-19 12:38:00,59.0,55.1,30.19,SSE,162,7.4,16.1,87,0.00,CLR,,0.07,WeatherDisplay:10.37,2013-05-19 16:38:00,
2013-05-19 12:44:00,58.9,55.4,30.18,ENE,75,4.2,10.4,88,0.00,CLR,,0.07,WeatherDisplay:10.37,2013-05-19 16:44:00,
2013-05-19 12:49:00,59.2,55.6,30.18,SE,128,1.0,5.8,88,0.00,CLR,,0.07,WeatherDisplay:10.37,2013-05-19 16:49:00,
2013-05-19 12:54:00,59.0,55.4,30.18,East,89,5.2,6.9,88,0.00,CLR,,0.07,WeatherDisplay:10.37,2013-05-19 16:54:00,
2013-05-19 12:59:00,58.9,55.4,30.18,SE,143,4.3,6.9,88,0.00,CLR,,0.07,WeatherDisplay:10.37,2013-05-19 16:59:00,
2013-05-19 13:04:00,58.9,55.7,30.18,East,85,0.0,1.2,89,0.00,CLR,,0.07,WeatherDisplay:10.37,2013-05-19 17:04:00,
2013-05-19 13:09:00,59.0,55.8,30.17,SW,224,0.0,1.2,89,0.00,CLR,,0.07,WeatherDisplay:10.37,2013-05-19 17:09:00,
2013-05-19 13:14:00,59.2,56.0,30.17,SSE,160,0.0,0.0,89,0.00,CLR,,0.07,WeatherDisplay:10.37,2013-05-19 17:14:00,
2013-05-19 13:20:00,59.2,56.0,30.17,ENE,68,0.0,0.0,89,0.00,CLR,,0.07,WeatherDisplay:10.37,2013-05-19 17:20:00,
2013-05-19 13:25:00,59.0,55.8,30.17,SE,141,1.6,5.8,89,0.00,CLR,,0.07,WeatherDisplay:10.37,2013-05-19 17:25:00,
2013-05-19 13:30:00,59.2,55.6,30.17,ENE,69,2.8,5.8,88,0.00,CLR,,0.07,WeatherDisplay:10.37,2013-05-19 17:30:00,
2013-05-19 13:35:00,59.0,55.4,30.17,SE,138,4.6,11.5,88,0.00,CLR,,0.07,WeatherDisplay:10.37,2013-05-19 17:35:00,
2013-05-19 13:40:00,58.7,55.2,30.17,SE,128,0.0,1.2,88,0.00,CLR,,0.07,WeatherDisplay:10.37,2013-05-19 17:40:00,
2013-05-19 13:46:00,58.9,55.4,30.17,SE,137,0.1,3.5,88,0.00,CLR,,0.07,WeatherDisplay:10.37,2013-05-19 17:46:00,
2013-05-19 13:51:00,58.9,55.4,30.17,North,0,0.0,4.6,88,0.00,CLR,,0.07,WeatherDisplay:10.37,2013-05-19 17:51:00,
2013-05-19 13:56:00,59.0,55.8,30.17,ESE,117,0.0,0.0,89,0.00,CLR,,0.07,WeatherDisplay:10.37,2013-05-19 17:56:00,
2013-05-19 14:01:00,59.0,55.4,30.17,ENE,78,1.4,3.5,88,0.00,CLR,,0.07,WeatherDisplay:10.37,2013-05-19 18:01:00,
2013-05-19 14:07:00,58.9,55.4,30.17,ENE,76,0.0,0.0,88,0.00,CLR,,0.07,WeatherDisplay:10.37,2013-05-19 18:07:00,
2013-05-19 14:12:00,58.6,55.4,30.17,East,97,2.6,3.5,89,0.00,CLR,,0.07,WeatherDisplay:10.37,2013-05-19 18:12:00,
2013-05-19 14:17:00,58.7,55.5,30.17,East,97,0.0,0.0,89,0.00,CLR,,0.07,WeatherDisplay:10.37,2013-05-19 18:17:00,
2013-05-19 14:22:00,58.9,55.7,30.17,East,95,1.8,8.1,89,0.00,CLR,,0.07,WeatherDisplay:10.37,2013-05-19 18:22:00,
2013-05-19 14:27:00,58.7,55.2,30.17,SE,137,2.3,6.0,88,0.00,CLR,,0.07,WeatherDisplay:10.37,2013-05-19 18:27:00,
2013-05-19 14:32:00,58.6,55.1,30.16,SE,136,1.0,3.0,88,0.00,CLR,,0.07,WeatherDisplay:10.37,2013-05-19 18:32:00,
2013-05-19 14:37:00,58.9,55.4,30.16,SSE,147,0.0,0.0,88,0.00,CLR,,0.07,WeatherDisplay:10.37,2013-05-19 18:37:00,
2013-05-19 14:42:00,58.6,55.1,30.16,ESE,102,4.2,10.0,88,0.00,CLR,,0.07,WeatherDisplay:10.37,2013-05-19 18:42:00,
2013-05-19 14:47:00,58.4,54.9,30.16,ESE,109,1.5,8.1,88,0.00,CLR,,0.07,WeatherDisplay:10.37,2013-05-19 18:47:00,
2013-05-19 14:52:00,58.7,55.2,30.15,East,86,0.8,0.0,88,0.00,CLR,,0.07,WeatherDisplay:10.37,2013-05-19 18:52:00,
2013-05-19 14:57:00,58.7,55.2,30.15,East,90,0.4,3.5,88,0.00,CLR,,0.07,WeatherDisplay:10.37,2013-05-19 18:57:00,
2013-05-19 15:03:00,58.7,55.2,30.15,SSE,152,2.3,5.8,88,0.00,CLR,,0.07,WeatherDisplay:10.37,2013-05-19 19:03:00,
2013-05-19 15:08:00,58.7,55.5,30.15,SE,126,0.2,8.0,89,0.00,CLR,,0.07,WeatherDisplay:10.37,2013-05-19 19:08:00,
2013-05-19 15:13:00,58.7,55.5,30.14,East,83,2.4,4.6,89,0.00,CLR,,0.07,WeatherDisplay:10.37,2013-05-19 19:13:00,
2013-05-19 15:18:00,58.7,55.5,30.14,ENE,78,0.0,0.0,89,0.00,CLR,,0.07,WeatherDisplay:10.37,2013-05-19 19:18:00,
2013-05-19 15:23:00,58.4,55.2,30.14,East,92,0.5,2.3,89,0.00,CLR,,0.07,WeatherDisplay:10.37,2013-05-19 19:23:00,
2013-05-19 15:29:00,58.4,55.2,30.14,ENE,76,2.0,5.8,89,0.00,CLR,,0.07,WeatherDisplay:10.37,2013-05-19 19:29:00,
2013-05-19 15:34:00,58.4,55.5,30.14,SE,134,0.4,2.3,90,0.00,CLR,,0.07,WeatherDisplay:10.37,2013-05-19 19:34:00,
2013-05-19 15:39:00,58.4,55.5,30.14,ESE,104,0.0,0.0,90,0.00,CLR,,0.07,WeatherDisplay:10.37,2013-05-19 19:39:00,
2013-05-19 15:44:00,58.4,55.2,30.13,East,80,3.4,6.9,89,0.00,CLR,,0.07,WeatherDisplay:10.37,2013-05-19 19:44:00,
2013-05-19 15:49:00,58.3,55.4,30.13,East,80,1.0,5.0,90,0.00,CLR,,0.07,WeatherDisplay:10.37,2013-05-19 19:49:00,
2013-05-19 15:54:00,58.3,55.1,30.13,ESE,109,1.4,3.0,89,0.00,CLR,,0.07,WeatherDisplay:10.37,2013-05-19 19:54:00,
2013-05-19 15:59:00,58.3,55.1,30.13,ESE,119,1.4,5.8,89,0.00,CLR,,0.07,WeatherDisplay:10.37,2013-05-19 19:59:00,
2013-05-19 16:04:00,58.4,55.2,30.13,ESE,113,0.6,8.1,89,0.00,CLR,,0.07,WeatherDisplay:10.37,2013-05-19 20:04:00,
2013-05-19 16:09:00,58.3,55.1,30.13,ESE,104,1.2,3.5,89,0.00,CLR,,0.07,WeatherDisplay:10.37,2013-05-19 20:09:00,
2013-05-19 16:15:00,58.4,55.2,30.13,ENE,75,0.9,2.0,89,0.00,CLR,,0.07,WeatherDisplay:10.37,2013-05-19 20:15:00,
2013-05-19 16:20:00,58.4,55.2,30.13,East,96,0.0,1.2,89,0.00,CLR,,0.07,WeatherDisplay:10.37,2013-05-19 20:20:00,
2013-05-19 16:25:00,58.4,55.2,30.13,East,96,3.3,4.6,89,0.00,CLR,,0.07,WeatherDisplay:10.37,2013-05-19 20:25:00,
2013-05-19 16:30:00,58.4,55.2,30.13,East,93,0.0,0.0,89,0.00,CLR,,0.07,WeatherDisplay:10.37,2013-05-19 20:30:00,
2013-05-19 16:35:00,58.4,55.2,30.13,East,88,3.3,10.4,89,0.00,CLR,,0.07,WeatherDisplay:10.37,2013-05-19 20:35:00,
2013-05-19 16:40:00,58.1,54.9,30.12,ENE,64,1.0,3.0,89,0.00,CLR,,0.07,WeatherDisplay:10.37,2013-05-19 20:40:00,
2013-05-19 16:45:00,58.1,54.9,30.12,East,83,3.3,6.9,89,0.00,CLR,,0.07,WeatherDisplay:10.37,2013-05-19 20:45:00,
2013-05-19 16:50:00,58.1,55.2,30.12,SE,144,1.1,6.9,90,0.00,CLR,,0.07,WeatherDisplay:10.37,2013-05-19 20:50:00,
2013-05-19 16:55:00,58.0,55.1,30.12,East,100,1.9,8.1,90,0.00,CLR,,0.07,WeatherDisplay:10.37,2013-05-19 20:55:00,
2013-05-19 17:00:00,57.8,54.6,30.13,ENE,71,3.0,3.5,89,0.00,CLR,,0.07,WeatherDisplay:10.37,2013-05-19 21:00:00,
2013-05-19 17:05:00,57.6,54.4,30.13,East,80,3.2,4.0,89,0.00,CLR,,0.07,WeatherDisplay:10.37,2013-05-19 21:05:00,
2013-05-19 17:10:00,57.5,54.6,30.13,East,90,2.9,2.9,90,0.00,CLR,,0.07,WeatherDisplay:10.37,2013-05-19 21:10:00,
2013-05-19 17:15:00,57.5,54.6,30.13,East,88,0.5,5.8,90,0.00,CLR,,0.07,WeatherDisplay:10.37,2013-05-19 21:15:00,
2013-05-19 17:20:00,57.3,54.4,30.13,East,90,2.0,4.6,90,0.00,CLR,,0.07,WeatherDisplay:10.37,2013-05-19 21:20:00,
2013-05-19 17:26:00,57.3,54.4,30.13,ENE,76,0.0,0.0,90,0.00,CLR,,0.07,WeatherDisplay:10.37,2013-05-19 21:26:00,
2013-05-19 17:31:00,57.3,54.4,30.12,East,99,2.9,11.5,90,0.00,CLR,,0.07,WeatherDisplay:10.37,2013-05-19 21:31:00,
2013-05-19 17:36:00,57.3,54.4,30.13,SSE,147,4.0,8.1,90,0.00,CLR,,0.07,WeatherDisplay:10.37,2013-05-19 21:36:00,
2013-05-19 17:41:00,57.5,54.6,30.13,East,79,1.7,2.0,90,0.00,CLR,,0.07,WeatherDisplay:10.37,2013-05-19 21:41:00,
2013-05-19 17:47:00,57.3,54.4,30.12,East,79,0.1,1.2,90,0.00,CLR,,0.07,WeatherDisplay:10.37,2013-05-19 21:47:00,
2013-05-19 17:52:00,57.2,54.3,30.12,East,92,1.1,4.6,90,0.00,CLR,,0.07,WeatherDisplay:10.37,2013-05-19 21:52:00,
2013-05-19 17:57:00,57.2,54.3,30.12,NE,48,3.2,6.9,90,0.00,CLR,,0.07,WeatherDisplay:10.37,2013-05-19 21:57:00,
2013-05-19 18:02:00,57.3,54.7,30.12,East,86,0.2,3.5,91,0.00,CLR,,0.07,WeatherDisplay:10.37,2013-05-19 22:02:00,
2013-05-19 18:07:00,57.3,54.7,30.12,NE,51,0.0,3.5,91,0.00,CLR,,0.07,WeatherDisplay:10.37,2013-05-19 22:07:00,
2013-05-19 18:12:00,57.5,54.9,30.13,East,88,0.0,0.0,91,0.00,CLR,,0.07,WeatherDisplay:10.37,2013-05-19 22:12:00,
2013-05-19 18:18:00,57.5,54.9,30.13,East,89,0.0,0.0,91,0.00,CLR,,0.07,WeatherDisplay:10.37,2013-05-19 22:18:00,
2013-05-19 18:23:00,57.3,54.4,30.13,ENE,61,0.0,2.3,90,0.00,CLR,,0.07,WeatherDisplay:10.37,2013-05-19 22:23:00,
2013-05-19 18:28:00,57.3,54.4,30.13,ENE,62,0.0,0.0,90,0.00,CLR,,0.07,WeatherDisplay:10.37,2013-05-19 22:28:00,
2013-05-19 18:33:00,57.2,54.3,30.13,East,86,0.4,4.6,90,0.00,CLR,,0.07,WeatherDisplay:10.37,2013-05-19 22:33:00,
2013-05-19 18:39:00,57.2,54.3,30.13,East,89,0.5,3.5,90,0.00,CLR,,0.07,WeatherDisplay:10.37,2013-05-19 22:39:00,
2013-05-19 18:44:00,57.0,54.1,30.13,NNE,32,0.0,1.2,90,0.00,CLR,,0.07,WeatherDisplay:10.37,2013-05-19 22:44:00,
2013-05-19 18:49:00,57.0,54.1,30.13,NE,38,0.0,0.0,90,0.00,CLR,,0.07,WeatherDisplay:10.37,2013-05-19 22:49:00,
2013-05-19 18:54:00,56.9,54.0,30.13,ENE,61,2.4,2.4,90,0.00,CLR,,0.07,WeatherDisplay:10.37,2013-05-19 22:54:00,
2013-05-19 18:59:00,56.7,54.1,30.13,East,90,0.0,0.0,91,0.00,CLR,,0.07,WeatherDisplay:10.37,2013-05-19 22:59:00,
2013-05-19 19:04:00,56.7,54.1,30.13,East,85,0.0,0.0,91,0.00,CLR,,0.07,WeatherDisplay:10.37,2013-05-19 23:04:00,
2013-05-19 19:10:00,56.6,54.0,30.13,East,89,0.0,0.0,91,0.00,CLR,,0.07,WeatherDisplay:10.37,2013-05-19 23:10:00,
2013-05-19 19:15:00,56.6,54.0,30.13,East,82,0.0,0.0,91,0.00,CLR,,0.07,WeatherDisplay:10.37,2013-05-19 23:15:00,
2013-05-19 19:20:00,56.6,54.0,30.13,NNE,25,0.6,4.6,91,0.00,CLR,,0.07,WeatherDisplay:10.37,2013-05-19 23:20:00,
2013-05-19 19:25:00,56.5,53.9,30.13,NE,48,1.5,5.8,91,0.00,CLR,,0.07,WeatherDisplay:10.37,2013-05-19 23:25:00,
2013-05-19 19:30:00,56.5,54.2,30.13,East,85,1.5,2.3,92,0.00,CLR,,0.07,WeatherDisplay:10.37,2013-05-19 23:30:00,
2013-05-19 19:35:00,56.5,54.2,30.13,East,92,0.0,0.0,92,0.00,CLR,,0.07,WeatherDisplay:10.37,2013-05-19 23:35:00,
2013-05-19 19:40:00,56.5,54.2,30.13,East,86,0.0,0.0,92,0.00,CLR,,0.07,WeatherDisplay:10.37,2013-05-19 23:40:00,
2013-05-19 19:45:00,56.5,54.2,30.12,East,82,1.1,3.5,92,0.00,CLR,,0.07,WeatherDisplay:10.37,2013-05-19 23:45:00,
2013-05-19 19:50:00,56.5,54.2,30.12,NE,56,1.9,1.9,92,0.00,CLR,,0.07,WeatherDisplay:10.37,2013-05-19 23:50:00,
2013-05-19 19:55:00,56.5,54.2,30.12,ENE,61,0.0,0.0,92,0.00,CLR,,0.07,WeatherDisplay:10.37,2013-05-19 23:55:00,
2013-05-19 20:00:00,56.5,54.2,30.11,ENE,61,0.0,0.0,92,0.00,CLR,,0.07,WeatherDisplay:10.37,2013-05-20 00:00:00,
2013-05-19 20:06:00,56.3,54.0,30.11,ENE,75,1.3,3.5,92,0.00,CLR,,0.07,WeatherDisplay:10.37,2013-05-20 00:06:00,
2013-05-19 20:11:00,56.2,53.9,30.11,East,88,2.3,3.5,92,0.00,CLR,,0.07,WeatherDisplay:10.37,2013-05-20 00:11:00,
2013-05-19 20:16:00,56.2,53.9,30.11,ESE,120,0.0,3.5,92,0.00,CLR,,0.07,WeatherDisplay:10.37,2013-05-20 00:16:00,
2013-05-19 20:21:00,56.2,53.9,30.11,ENE,78,0.0,0.0,92,0.00,CLR,,0.07,WeatherDisplay:10.37,2013-05-20 00:21:00,
2013-05-19 20:26:00,56.2,53.9,30.11,East,100,0.0,0.0,92,0.00,CLR,,0.07,WeatherDisplay:10.37,2013-05-20 00:26:00,
2013-05-19 20:31:00,56.0,54.0,30.10,East,99,0.0,0.0,93,0.00,CLR,,0.07,WeatherDisplay:10.37,2013-05-20 00:31:00,
2013-05-19 20:36:00,56.0,54.0,30.10,SE,133,0.0,0.0,93,0.00,CLR,,0.07,WeatherDisplay:10.37,2013-05-20 00:36:00,
2013-05-19 20:42:00,56.0,54.0,30.10,East,90,2.1,3.5,93,0.00,CLR,,0.07,WeatherDisplay:10.37,2013-05-20 00:42:00,
2013-05-19 20:47:00,56.0,54.0,30.10,East,89,0.0,0.0,93,0.00,CLR,,0.07,WeatherDisplay:10.37,2013-05-20 00:47:00,
2013-05-19 20:52:00,56.0,54.0,30.10,ESE,112,2.2,5.8,93,0.00,CLR,,0.07,WeatherDisplay:10.37,2013-05-20 00:52:00,
2013-05-19 20:57:00,56.0,54.0,30.10,East,95,0.0,0.0,93,0.00,CLR,,0.07,WeatherDisplay:10.37,2013-05-20 00:57:00,
2013-05-19 21:02:00,55.9,53.9,30.09,ESE,119,0.0,0.0,93,0.00,CLR,,0.07,WeatherDisplay:10.37,2013-05-20 01:02:00,
2013-05-19 21:07:00,55.9,54.2,30.10,SE,130,0.0,0.0,94,0.00,CLR,,0.07,WeatherDisplay:10.37,2013-05-20 01:07:00,
2013-05-19 21:12:00,55.9,54.2,30.10,East,89,1.2,4.6,94,0.00,CLR,,0.07,WeatherDisplay:10.37,2013-05-20 01:12:00,
2013-05-19 21:18:00,55.9,54.2,30.10,East,100,0.9,4.6,94,0.00,CLR,,0.07,WeatherDisplay:10.37,2013-05-20 01:18:00,
2013-05-19 21:23:00,55.9,54.2,30.10,East,99,0.0,0.0,94,0.00,CLR,,0.07,WeatherDisplay:10.37,2013-05-20 01:23:00,
2013-05-19 21:28:00,55.9,54.2,30.10,East,99,0.0,0.0,94,0.00,CLR,,0.07,WeatherDisplay:10.37,2013-05-20 01:28:00,
2013-05-19 21:33:00,55.9,54.2,30.11,East,96,0.0,0.0,94,0.00,CLR,,0.07,WeatherDisplay:10.37,2013-05-20 01:33:00,
2013-05-19 21:38:00,55.9,54.2,30.11,East,96,0.3,2.0,94,0.00,CLR,,0.07,WeatherDisplay:10.37,2013-05-20 01:38:00,
2013-05-19 21:43:00,55.9,54.2,30.11,East,80,0.0,0.0,94,0.00,CLR,,0.07,WeatherDisplay:10.37,2013-05-20 01:43:00,
2013-05-19 21:49:00,55.9,54.2,30.11,East,80,0.0,0.0,94,0.00,CLR,,0.07,WeatherDisplay:10.37,2013-05-20 01:49:00,
2013-05-19 21:54:00,55.9,54.2,30.11,East,80,0.0,0.0,94,0.00,CLR,,0.07,WeatherDisplay:10.37,2013-05-20 01:54:00,
2013-05-19 21:59:00,55.9,54.2,30.11,East,82,0.5,2.3,94,0.00,CLR,,0.07,WeatherDisplay:10.37,2013-05-20 01:59:00,
2013-05-19 22:04:00,55.9,54.2,30.11,East,82,0.0,0.0,94,0.00,CLR,,0.07,WeatherDisplay:10.37,2013-05-20 02:04:00,
2013-05-19 22:09:00,55.9,54.2,30.11,East,82,0.0,0.0,94,0.00,CLR,,0.07,WeatherDisplay:10.37,2013-05-20 02:09:00,
2013-05-19 22:14:00,55.9,54.5,30.12,East,82,0.0,0.0,95,0.00,CLR,,0.07,WeatherDisplay:10.37,2013-05-20 02:14:00,
2013-05-19 22:20:00,55.9,54.5,30.12,East,82,0.0,0.0,95,0.00,CLR,,0.07,WeatherDisplay:10.37,2013-05-20 02:20:00,
2013-05-19 22:25:00,55.9,54.5,30.12,East,82,0.0,0.0,95,0.00,CLR,,0.07,WeatherDisplay:10.37,2013-05-20 02:25:00,
2013-05-19 22:30:00,55.9,54.5,30.12,East,80,0.0,0.0,95,0.00,CLR,,0.07,WeatherDisplay:10.37,2013-05-20 02:30:00,
2013-05-19 22:35:00,55.9,54.5,30.13,East,80,0.0,0.0,95,0.00,CLR,,0.07,WeatherDisplay:10.37,2013-05-20 02:35:00,
2013-05-19 22:40:00,55.9,54.5,30.13,East,80,0.0,0.0,95,0.00,CLR,,0.07,WeatherDisplay:10.37,2013-05-20 02:40:00,
2013-05-19 22:45:00,55.9,54.5,30.13,East,80,0.0,0.0,95,0.00,CLR,,0.07,WeatherDisplay:10.37,2013-05-20 02:45:00,
2013-05-19 22:51:00,55.9,54.5,30.13,East,80,0.0,0.0,95,0.00,CLR,,0.07,WeatherDisplay:10.37,2013-05-20 02:51:00,
2013-05-19 22:56:00,56.0,54.6,30.13,East,80,0.0,0.0,95,0.00,CLR,,0.07,WeatherDisplay:10.37,2013-05-20 02:56:00,
2013-05-19 23:01:00,55.9,54.5,30.12,East,80,0.0,0.0,95,0.00,CLR,,0.07,WeatherDisplay:10.37,2013-05-20 03:01:00,
2013-05-19 23:06:00,56.0,54.6,30.12,East,80,0.0,0.0,95,0.00,CLR,,0.07,WeatherDisplay:10.37,2013-05-20 03:06:00,
2013-05-19 23:11:00,56.0,54.6,30.12,East,80,0.0,0.0,95,0.00,CLR,,0.07,WeatherDisplay:10.37,2013-05-20 03:11:00,
2013-05-19 23:16:00,56.0,54.6,30.12,East,80,0.0,0.0,95,0.00,CLR,,0.07,WeatherDisplay:10.37,2013-05-20 03:16:00,
2013-05-19 23:21:00,56.0,54.6,30.12,East,80,0.0,0.0,95,0.00,CLR,,0.07,WeatherDisplay:10.37,2013-05-20 03:21:00,
2013-05-19 23:26:00,56.0,54.6,30.12,ENE,76,0.0,0.0,95,0.00,CLR,,0.07,WeatherDisplay:10.37,2013-05-20 03:26:00,
2013-05-19 23:32:00,56.0,54.6,30.11,ENE,75,0.0,0.0,95,0.00,CLR,,0.07,WeatherDisplay:10.37,2013-05-20 03:32:00,
2013-05-19 23:37:00,56.0,54.6,30.11,ENE,75,0.0,0.0,95,0.00,CLR,,0.07,WeatherDisplay:10.37,2013-05-20 03:37:00,
2013-05-19 23:42:00,56.0,54.6,30.11,ENE,75,0.0,0.0,95,0.00,CLR,,0.07,WeatherDisplay:10.37,2013-05-20 03:42:00,
2013-05-19 23:47:00,56.0,54.6,30.11,ENE,75,0.0,0.0,95,0.00,CLR,,0.07,WeatherDisplay:10.37,2013-05-20 03:47:00,
2013-05-19 23:52:00,56.0,54.6,30.11,ENE,75,0.0,0.0,95,0.00,CLR,,0.07,WeatherDisplay:10.37,2013-05-20 03:52:00,
2013-05-19 23:58:00,56.0,54.6,30.11,ENE,75,0.0,0.0,95,0.00,CLR,,0.07,WeatherDisplay:10.37,2013-05-20 03:58:00,